Time;durP1;ratioP1;P1;durP2;ratioP2;P2;SDS_P1;SDS_P2;PMS_P1;PMS_P2;Temp;Humidity;BMP_temperature;BMP_pressure;BME280_temperature;BME280_humidity;BME280_pressure;Samples;Min_cycle;Max_cycle;Signal;HPM_P1;HPM_P2
2022/07/29 00:01:48;;;;;;;6.57;3.38;;;;;;;19.36;62.67;100779.78;5048881;28;20045;-79
2022/07/29 00:04:15;;;;;;;6.70;3.75;;;;;;;19.34;63.92;100784.47;5050572;28;20071;-80
2022/07/29 00:06:42;;;;;;;7.43;3.88;;;;;;;19.33;64.96;100785.50;5049185;28;20072;-80
2022/07/29 00:09:08;;;;;;;8.30;3.40;;;;;;;19.26;64.98;100764.28;5048603;28;20057;-81
2022/07/29 00:11:35;;;;;;;7.35;3.58;;;;;;;19.27;64.54;100771.22;5048906;28;20053;-81
2022/07/29 00:14:02;;;;;;;9.75;3.78;;;;;;;19.18;64.39;100770.63;5046925;28;20060;-78
2022/07/29 00:16:30;;;;;;;9.85;4.07;;;;;;;19.15;64.59;100754.31;5043927;28;20137;-78
2022/07/29 00:18:56;;;;;;;14.88;4.35;;;;;;;19.19;64.71;100769.63;5046201;28;20444;-79
2022/07/29 00:21:23;;;;;;;8.05;3.50;;;;;;;19.20;64.84;100760.63;5049271;28;20053;-80
2022/07/29 00:23:50;;;;;;;8.18;3.92;;;;;;;19.16;64.75;100746.16;5049421;28;20060;-79
2022/07/29 00:26:16;;;;;;;9.02;3.10;;;;;;;19.15;64.92;100739.22;5036512;28;20049;-79
2022/07/29 00:28:43;;;;;;;7.75;3.65;;;;;;;19.32;64.44;100752.84;5026310;28;20046;-78
2022/07/29 00:31:10;;;;;;;8.90;3.65;;;;;;;19.29;64.16;100747.97;5027301;28;20046;-78
2022/07/29 00:33:38;;;;;;;10.93;3.65;;;;;;;19.29;64.23;100747.16;5023996;28;20092;-79
2022/07/29 00:36:04;;;;;;;8.85;3.70;;;;;;;19.25;64.65;100757.34;5024787;28;20054;-80
2022/07/29 00:38:31;;;;;;;11.63;3.70;;;;;;;19.21;64.55;100741.03;5026862;28;20050;-80
2022/07/29 00:40:58;;;;;;;6.50;3.53;;;;;;;19.14;65.00;100732.28;5026287;28;20069;-80
2022/07/29 00:43:24;;;;;;;6.72;3.70;;;;;;;19.06;65.20;100743.13;5026860;28;20053;-81
2022/07/29 00:45:51;;;;;;;6.07;3.83;;;;;;;18.97;65.21;100738.25;5027177;28;20106;-81
2022/07/29 00:48:18;;;;;;;7.93;3.40;;;;;;;18.78;65.76;100726.69;5027094;28;20728;-81
2022/07/29 00:50:46;;;;;;;6.18;3.53;;;;;;;18.71;66.11;100732.00;5027243;28;20103;-80
2022/07/29 00:53:13;;;;;;;5.53;3.40;;;;;;;18.74;66.42;100736.06;5027107;28;20050;-79
2022/07/29 00:55:39;;;;;;;11.88;4.00;;;;;;;18.60;66.71;100703.47;5026954;28;20667;-81
2022/07/29 00:58:07;;;;;;;6.70;3.75;;;;;;;18.72;66.96;100715.06;5026794;28;20074;-81
2022/07/29 01:00:34;;;;;;;6.15;3.30;;;;;;;18.69;67.07;100704.88;5026963;28;20061;-79
2022/07/29 01:03:01;;;;;;;9.45;3.83;;;;;;;18.71;66.93;100702.03;5026658;28;20423;-80
2022/07/29 01:05:29;;;;;;;7.05;3.80;;;;;;;18.71;66.70;100702.84;5026947;28;20054;-80
2022/07/29 01:07:58;;;;;;;10.82;3.90;;;;;;;18.77;66.36;100699.38;5026420;28;20557;-80
2022/07/29 01:10:25;;;;;;;6.43;3.60;;;;;;;18.78;66.12;100697.53;5035001;28;20137;-81
2022/07/29 01:12:55;;;;;;;10.60;4.00;;;;;;;18.84;65.97;100686.91;5046586;28;20046;-80
2022/07/29 01:15:22;;;;;;;9.35;3.70;;;;;;;18.95;65.91;100697.88;5040913;28;20104;-81
2022/07/29 01:17:58;;;;;;;8.63;3.60;;;;;;;19.01;65.12;100691.72;5025720;28;20058;-80
2022/07/29 01:20:30;;;;;;;7.05;3.65;;;;;;;18.96;64.94;100692.34;5030221;28;20419;-80
2022/07/29 01:23:17;;;;;;;7.28;3.72;;;;;;;18.99;64.72;100688.47;5046684;28;20107;-81
2022/07/29 01:25:55;;;;;;;7.80;3.70;;;;;;;18.89;65.57;100689.75;5043954;28;20055;-80
2022/07/29 01:28:46;;;;;;;5.03;3.38;;;;;;;18.83;65.22;100674.69;5043849;28;20144;-82
2022/07/29 01:31:17;;;;;;;7.22;4.20;;;;;;;18.87;65.25;100683.03;5044719;28;20053;-81
2022/07/29 01:33:51;;;;;;;8.25;4.05;;;;;;;18.87;65.19;100685.69;5045015;28;20053;-82
2022/07/29 01:36:23;;;;;;;8.73;4.38;;;;;;;18.94;64.86;100675.03;5039246;28;20099;-81
2022/07/29 01:38:58;;;;;;;9.15;3.95;;;;;;;18.93;65.42;100690.13;5037232;28;20065;-80
2022/07/29 01:41:30;;;;;;;7.20;3.90;;;;;;;18.97;65.74;100695.81;5036984;28;20518;-79
2022/07/29 01:44:02;;;;;;;8.10;4.13;;;;;;;18.96;65.43;100689.72;5038125;28;20431;-81
2022/07/29 01:46:32;;;;;;;6.30;3.55;;;;;;;19.02;65.96;100696.00;5024837;28;20061;-82
2022/07/29 01:49:06;;;;;;;9.45;3.88;;;;;;;19.03;66.15;100701.13;5044335;22;20094;-82
2022/07/29 01:51:41;;;;;;;9.25;3.90;;;;;;;18.92;67.48;100703.59;5068884;28;20506;-81
2022/07/29 01:54:13;;;;;;;8.68;3.78;;;;;;;18.81;68.67;100703.25;5077337;28;20052;-80
2022/07/29 01:56:41;;;;;;;9.18;3.53;;;;;;;18.70;69.16;100695.09;5035661;28;20080;-80
2022/07/29 01:59:10;;;;;;;8.50;3.72;;;;;;;18.62;69.28;100688.19;5037072;28;20056;-82
2022/07/29 02:01:40;;;;;;;7.90;3.60;;;;;;;18.57;69.75;100690.59;5037233;28;20049;-78
2022/07/29 02:04:10;;;;;;;7.75;3.83;;;;;;;18.54;70.27;100683.06;5037394;28;20427;-79
2022/07/29 02:06:41;;;;;;;8.68;3.83;;;;;;;18.48;70.86;100682.06;5055036;28;20060;-81
2022/07/29 02:09:12;;;;;;;10.88;3.83;;;;;;;18.38;71.09;100672.91;5057576;28;20073;-81
2022/07/29 02:11:40;;;;;;;7.03;3.60;;;;;;;18.33;70.91;100678.84;5058329;28;20076;-81
2022/07/29 02:14:11;;;;;;;8.73;3.63;;;;;;;18.30;71.25;100683.72;5060655;28;20053;-80
2022/07/29 02:16:41;;;;;;;8.18;3.90;;;;;;;18.35;70.49;100684.75;5069812;28;20048;-81
2022/07/29 02:19:09;;;;;;;11.38;4.00;;;;;;;18.39;69.93;100679.84;5066674;28;20053;-81
2022/07/29 02:21:36;;;;;;;7.55;3.55;;;;;;;18.39;69.64;100687.78;5063842;28;20087;-81
2022/07/29 02:24:05;;;;;;;7.57;3.63;;;;;;;18.42;69.94;100685.56;5064785;28;20053;-82
2022/07/29 02:26:34;;;;;;;6.13;3.90;;;;;;;18.30;70.06;100679.25;5061449;28;20052;-81
2022/07/29 02:29:02;;;;;;;7.03;3.88;;;;;;;18.21;70.37;100685.75;5059816;28;20049;-81
2022/07/29 02:31:35;;;;;;;9.88;3.75;;;;;;;18.16;71.00;100696.97;5060287;28;20041;-82
2022/07/29 02:34:02;;;;;;;;;;;;;;;18.07;71.75;100703.47;5060920;28;20140;-81
2022/07/29 02:36:30;;;;;;;;;;;;;;;17.99;72.17;100711.63;5064487;28;19920;-83
2022/07/29 02:39:00;;;;;;;;;;;;;;;17.93;71.57;100706.34;5067849;28;19921;-80
2022/07/29 02:41:28;;;;;;;;;;;;;;;18.01;70.99;100711.41;5064691;28;19927;-81
2022/07/29 02:43:57;;;;;;;;;;;;;;;18.00;71.10;100701.84;5065402;28;19928;-82
2022/07/29 02:46:27;;;;;;;;;;;;;;;17.92;71.29;100702.88;5063196;28;19972;-80
2022/07/29 02:48:59;;;;;;;;;;;;;;;17.89;71.64;100708.56;5063485;28;19921;-82
2022/07/29 02:51:28;;;;;;;;;;;;;;;17.94;71.41;100722.03;5063434;28;19974;-82
2022/07/29 02:53:57;;;;;;;;;;;;;;;17.91;71.29;100711.84;5063801;28;19952;-83
2022/07/29 02:56:26;;;;;;;;;;;;;;;17.86;70.67;100723.03;5063796;28;19921;-81
2022/07/29 02:58:55;;;;;;;;;;;;;;;17.83;70.35;100722.59;5062286;28;19920;-79
2022/07/29 03:01:23;;;;;;;;;;;;;;;17.80;70.07;100725.66;5062605;28;19982;-81
2022/07/29 03:03:50;;;;;;;;;;;;;;;17.84;69.89;100726.88;5063035;28;20344;-82
2022/07/29 03:06:18;;;;;;;;;;;;;;;17.84;69.42;100733.00;5062055;28;19943;-82
2022/07/29 03:08:45;;;;;;;;;;;;;;;17.89;69.30;100729.75;5063432;28;19973;-82
2022/07/29 03:11:13;;;;;;;;;;;;;;;17.80;69.27;100731.75;5063147;28;19956;-82
2022/07/29 03:13:40;;;;;;;;;;;;;;;17.87;68.81;100729.13;5067242;28;19920;-82
2022/07/29 03:16:07;;;;;;;;;;;;;;;17.89;67.96;100735.03;5071646;28;20686;-79
2022/07/29 03:18:33;;;;;;;;;;;;;;;17.84;67.85;100726.88;5064871;28;19920;-82
2022/07/29 03:21:00;;;;;;;;;;;;;;;17.75;67.85;100725.44;5063778;28;20331;-81
2022/07/29 03:23:28;;;;;;;;;;;;;;;17.78;67.70;100725.03;5064590;28;19944;-84
2022/07/29 03:25:55;;;;;;;;;;;;;;;17.75;67.87;100728.91;5063114;28;19925;-82
2022/07/29 03:28:22;;;;;;;;;;;;;;;17.68;68.08;100722.78;5063664;28;19920;-83
2022/07/29 03:30:49;;;;;;;;;;;;;;;17.68;68.08;100737.84;5063233;28;19932;-82
2022/07/29 03:33:15;;;;;;;;;;;;;;;17.55;68.63;100736.75;5063587;28;19928;-83
2022/07/29 03:35:42;;;;;;;;;;;;;;;17.50;69.13;100736.53;5063587;28;19974;-81
2022/07/29 03:38:08;;;;;;;;;;;;;;;17.38;69.79;100727.56;5062182;28;20355;-81
2022/07/29 03:40:39;;;;;;;;;;;;;;;17.34;70.07;100720.22;5060641;28;20390;-79
2022/07/29 03:43:07;;;;;;;;;;;;;;;17.21;71.17;100729.72;5060913;28;19975;-80
2022/07/29 03:45:34;;;;;;;;;;;;;;;17.18;71.77;100738.03;5060403;28;19920;-80
2022/07/29 03:48:02;;;;;;;;;;;;;;;17.26;71.53;100734.41;5061742;28;20283;-81
2022/07/29 03:50:32;;;;;;;;;;;;;;;17.23;71.88;100727.69;5063470;28;19989;-82
2022/07/29 03:52:58;;;;;;;;;;;;;;;17.25;71.87;100740.72;5063281;28;19921;-82
2022/07/29 03:55:26;;;;;;;;;;;;;;;17.22;71.98;100744.56;5062841;28;19935;-81
2022/07/29 03:57:54;;;;;;;;;;;;;;;17.23;72.17;100745.38;5062664;28;19921;-79
2022/07/29 04:00:21;;;;;;;;;;;;;;;17.24;72.14;100747.00;5061407;28;19921;-81
2022/07/29 04:02:49;;;;;;;;;;;;;;;17.21;72.33;100745.56;5062241;28;19988;-82
2022/07/29 04:05:15;;;;;;;;;;;;;;;17.31;71.86;100747.88;5061907;28;20318;-81
2022/07/29 04:07:44;;;;;;;;;;;;;;;17.23;72.27;100742.75;5062212;28;19983;-78
2022/07/29 04:10:10;;;;;;;;;;;;;;;17.12;72.90;100753.88;5058805;28;19960;-80
2022/07/29 04:12:37;;;;;;;;;;;;;;;17.07;73.43;100740.41;5058557;28;20011;-79
2022/07/29 04:15:05;;;;;;;;;;;;;;;17.15;74.72;100733.13;5059172;28;19968;-82
2022/07/29 04:17:31;;;;;;;;;;;;;;;17.01;75.60;100738.56;5066950;28;19927;-80
2022/07/29 04:19:58;;;;;;;;;;;;;;;16.92;75.82;100744.00;5067005;28;20243;-81
2022/07/29 04:22:24;;;;;;;;;;;;;;;16.81;76.47;100735.81;5065476;28;19939;-82
2022/07/29 04:24:51;;;;;;;;;;;;;;;16.81;78.15;100747.19;5065460;28;19925;-80
2022/07/29 04:27:17;;;;;;;;;;;;;;;16.74;77.93;100745.50;5065461;28;19947;-79
2022/07/29 04:29:43;;;;;;;;;;;;;;;16.66;78.13;100748.31;5065348;28;19975;-81
2022/07/29 04:32:11;;;;;;;;;;;;;;;16.71;78.85;100752.00;5066266;28;19920;-79
2022/07/29 04:34:38;;;;;;;;;;;;;;;16.75;78.25;100755.06;5066164;28;19921;-82
2022/07/29 04:37:04;;;;;;;;;;;;;;;16.70;78.02;100749.56;5065799;28;19989;-79
2022/07/29 04:39:31;;;;;;;;;;;;;;;16.73;78.17;100755.28;5056290;28;19920;-80
2022/07/29 04:41:57;;;;;;;;;;;;;;;16.86;77.50;100750.06;5057694;28;19975;-81
2022/07/29 04:44:23;;;;;;;;;;;;;;;16.99;76.87;100767.03;5058189;28;19921;-78
2022/07/29 04:46:50;;;;;;;;;;;;;;;17.04;77.46;100761.94;5061897;28;19982;-80
2022/07/29 04:49:18;;;;;;;;;;;;;;;17.09;77.73;100764.81;5061893;28;19960;-80
2022/07/29 04:51:44;;;;;;;;;;;;;;;17.11;78.23;100776.03;5058730;28;19931;-80
2022/07/29 04:54:11;;;;;;;;;;;;;;;17.03;78.57;100773.53;5058532;28;20696;-79
2022/07/29 04:56:37;;;;;;;;;;;;;;;17.07;79.31;100783.53;5059783;28;19928;-81
2022/07/29 04:59:03;;;;;;;;;;;;;;;17.12;79.34;100783.75;5057870;28;19920;-82
2022/07/29 05:01:30;;;;;;;;;;;;;;;17.11;79.53;100791.88;5058857;28;20024;-81
2022/07/29 05:03:56;;;;;;;;;;;;;;;17.10;79.96;100790.25;5058621;28;20401;-80
2022/07/29 05:06:24;;;;;;;;;;;;;;;17.18;79.63;100792.75;5058373;28;19960;-78
2022/07/29 05:08:50;;;;;;;;;;;;;;;17.18;78.95;100787.47;5065078;28;19921;-82
2022/07/29 05:11:17;;;;;;;;;;;;;;;17.28;78.60;100779.19;5066018;28;19921;-80
2022/07/29 05:13:43;;;;;;;;;;;;;;;17.28;78.67;100790.56;5064426;28;19921;-83
2022/07/29 05:16:10;;;;;;;;;;;;;;;17.38;78.55;100792.88;5064712;28;19963;-82
2022/07/29 05:18:36;;;;;;;;;;;;;;;17.40;78.07;100789.00;5062621;28;19956;-82
2022/07/29 05:21:03;;;;;;;;;;;;;;;17.35;78.21;100791.41;5063042;28;19921;-82
2022/07/29 05:23:30;;;;;;;;;;;;;;;17.21;77.99;100787.88;5063842;28;20353;-82
2022/07/29 05:25:57;;;;;;;;;;;;;;;17.17;77.93;100784.00;5060891;28;19927;-82
2022/07/29 05:28:23;;;;;;;;;;;;;;;17.24;77.00;100776.09;5061171;28;20386;-80
2022/07/29 05:30:50;;;;;;;;;;;;;;;17.30;76.85;100779.78;5061976;28;19975;-81
2022/07/29 05:33:16;;;;;;;;;;;;;;;17.39;76.52;100787.38;5058717;28;20306;-78
2022/07/29 05:35:43;;;;;;;;;;;;;;;17.55;75.92;100789.66;5058877;28;19971;-81
2022/07/29 05:38:09;;;;;;;;;;;;;;;17.47;75.39;100792.50;5057712;28;19968;-79
2022/07/29 05:40:37;;;;;;;;;;;;;;;17.54;75.36;100792.50;5057360;28;20007;-81
2022/07/29 05:43:03;;;;;;;;;;;;;;;17.80;75.20;100805.06;5059340;28;19960;-79
2022/07/29 05:45:30;;;;;;;;;;;;;;;18.04;74.14;100812.44;5058752;28;20023;-81
2022/07/29 05:47:56;;;;;;;;;;;;;;;18.21;73.37;100803.13;5059963;28;20303;-81
2022/07/29 05:50:23;;;;;;;;;;;;;;;18.50;73.41;100809.03;5059402;28;19925;-81
2022/07/29 05:52:49;;;;;;;;;;;;;;;18.62;72.67;100815.41;5060717;28;19920;-81
2022/07/29 05:55:16;;;;;;;;;;;;;;;18.65;72.47;100808.88;5069325;28;19920;-81
2022/07/29 05:57:50;;;;;;;;;;;;;;;18.62;72.05;100810.09;5061533;28;19922;-81
2022/07/29 06:00:17;;;;;;;;;;;;;;;18.68;72.55;100822.53;5060042;28;19927;-81
2022/07/29 06:02:43;;;;;;;;;;;;;;;18.67;73.08;100820.91;5060466;28;19927;-81
2022/07/29 06:05:10;;;;;;;;;;;;;;;18.67;73.00;100823.56;5059471;28;20456;-79
2022/07/29 06:07:36;;;;;;;;;;;;;;;18.84;72.45;100835.38;5059529;28;20004;-79
2022/07/29 06:10:03;;;;;;;;;;;;;;;18.89;72.28;100843.53;5059449;28;20255;-81
2022/07/29 06:12:30;;;;;;;;;;;;;;;18.82;72.28;100860.47;5059024;28;19921;-81
2022/07/29 06:14:57;;;;;;;;;;;;;;;18.51;73.31;100866.31;5058934;28;19959;-79
2022/07/29 06:17:24;;;;;;;;;;;;;;;18.55;73.61;100864.91;5054872;28;20007;-78
2022/07/29 06:19:50;;;;;;;;;;;;;;;18.13;75.41;100874.00;5054978;28;19966;-77
2022/07/29 06:22:17;;;;;;;;;;;;;;;18.13;75.34;100863.41;5055251;28;19920;-79
2022/07/29 06:24:43;;;;;;;;;;;;;;;18.20;75.78;100873.00;5058745;28;20020;-78
2022/07/29 06:27:10;;;;;;;;;;;;;;;18.26;75.94;100863.44;5061618;28;20186;-81
2022/07/29 06:29:37;;;;;;;;;;;;;;;18.29;75.53;100841.03;5063694;28;19921;-79
2022/07/29 06:32:05;;;;;;;;;;;;;;;18.26;76.67;100852.84;5063021;28;19921;-80
2022/07/29 06:34:31;;;;;;;;;;;;;;;18.30;75.45;100848.78;5064964;28;19979;-80
2022/07/29 06:36:58;;;;;;;;;;;;;;;18.32;75.87;100857.34;5063824;28;19948;-79
2022/07/29 06:39:24;;;;;;;;;;;;;;;18.35;75.73;100861.41;5062684;28;19920;-81
2022/07/29 06:41:51;;;;;;;;;;;;;;;18.13;76.47;100869.50;5057175;28;19956;-79
2022/07/29 06:44:17;;;;;;;;;;;;;;;17.88;77.39;100871.88;5057650;28;19921;-81
2022/07/29 06:46:44;;;;;;;;;;;;;;;17.94;77.74;100870.28;5057477;28;19958;-79
2022/07/29 06:49:13;;;;;;;;;;;;;;;17.86;79.77;100867.81;5056881;28;19928;-81
2022/07/29 06:51:40;;;;;;;;;;;;;;;17.76;81.63;100880.59;5057091;28;19927;-81
2022/07/29 06:54:07;;;;;;;;;;;;;;;17.74;83.02;100874.66;5057894;28;19920;-81
2022/07/29 06:56:35;;;;;;;;;;;;;;;17.53;83.74;100873.72;5059923;28;19920;-83
2022/07/29 06:59:01;;;;;;;;;;;;;;;17.45;85.22;100875.72;5059281;28;19925;-83
2022/07/29 07:01:28;;;;;;;;;;;;;;;17.43;85.62;100867.97;5060803;28;21799;-81
2022/07/29 07:03:54;;;;;;;;;;;;;;;17.32;86.78;100876.44;5057956;28;20308;-81
2022/07/29 07:06:22;;;;;;;;;;;;;;;17.34;86.93;100874.44;5058367;28;20333;-80
2022/07/29 07:08:48;;;;;;;;;;;;;;;17.32;87.15;100867.69;5060778;28;19956;-79
2022/07/29 07:11:15;;;;;;;;;;;;;;;17.24;87.91;100858.09;5059081;28;19963;-81
2022/07/29 07:13:41;;;;;;;;;;;;;;;17.33;88.20;100850.81;5057077;28;19974;-80
2022/07/29 07:16:07;;;;;;;;;;;;;;;17.17;87.08;100842.16;5055776;28;19975;-78
2022/07/29 07:18:34;;;;;;;;;;;;;;;17.20;86.38;100846.25;5055826;28;20287;-79
2022/07/29 07:21:00;;;;;;;;;;;;;;;17.08;86.74;100847.78;5057193;28;19920;-79
2022/07/29 07:23:28;;;;;;;;;;;;;;;17.18;86.18;100845.63;5059922;28;20015;-77
2022/07/29 07:25:55;;;;;;;;;;;;;;;17.23;85.68;100843.22;5063464;28;19921;-78
2022/07/29 07:28:21;;;;;;;;;;;;;;;17.29;84.85;100849.56;5062553;28;19920;-78
2022/07/29 07:30:47;;;;;;;;;;;;;;;17.35;83.99;100852.25;5066619;28;19920;-80
2022/07/29 07:33:14;;;;;;;;;;;;;;;17.50;84.45;100857.41;5067271;28;19921;-79
2022/07/29 07:35:40;;;;;;;;;;;;;;;17.71;86.40;100873.22;5067244;28;19985;-79
2022/07/29 07:38:07;;;;;;;;;;;;;;;17.86;86.31;100879.22;5062046;28;19920;-80
2022/07/29 07:40:35;;;;;;;;;;;;;;;18.03;86.82;100882.31;5065221;28;19956;-81
2022/07/29 07:43:02;;;;;;;;;;;;;;;18.14;87.22;100886.22;5065472;28;19967;-78
2022/07/29 07:45:28;;;;;;;;;;;;;;;18.30;86.69;100895.63;5062118;28;19956;-80
2022/07/29 07:47:55;;;;;;;;;;;;;;;18.41;86.22;100892.41;5063370;28;19921;-80
2022/07/29 07:50:21;;;;;;;;;;;;;;;18.30;85.99;100880.56;5060922;28;19972;-80
2022/07/29 07:52:49;;;;;;;;;;;;;;;18.30;84.71;100885.03;5061010;28;19960;-80
2022/07/29 07:55:15;;;;;;;;;;;;;;;18.28;85.33;100881.78;5060285;28;19931;-79
2022/07/29 07:57:43;;;;;;;;;;;;;;;18.31;84.64;100866.31;5060369;28;20387;-80
2022/07/29 08:00:11;;;;;;;;;;;;;;;18.14;83.85;100865.84;5058856;28;19921;-81
2022/07/29 08:02:38;;;;;;;;;;;;;;;17.88;84.81;100866.59;5055625;28;20299;-79
2022/07/29 08:05:05;;;;;;;;;;;;;;;17.94;86.73;100869.47;5056607;28;19928;-79
2022/07/29 08:07:32;;;;;;;;;;;;;;;17.99;88.16;100878.41;5036782;28;19921;-79
2022/07/29 08:09:58;;;;;;;;;;;;;;;18.11;88.94;100866.25;5038807;28;20418;-81
2022/07/29 08:12:25;;;;;;;;;;;;;;;18.13;87.03;100866.84;5037344;28;20352;-79
2022/07/29 08:14:52;;;;;;;;;;;;;;;18.29;86.48;100870.97;5036222;28;19921;-79
2022/07/29 08:17:19;;;;;;;;;;;;;;;18.40;86.44;100877.53;5058267;28;19921;-79
2022/07/29 08:19:47;;;;;;;;;;;;;;;18.41;85.74;100866.72;5058611;28;19975;-80
2022/07/29 08:22:14;;;;;;;;;;;;;;;18.37;84.15;100854.91;5056846;28;19990;-79
2022/07/29 08:24:52;;;;;;;;;;;;;;;18.37;82.08;100846.13;5054366;28;20451;-79
2022/07/29 08:27:18;;;;;;;;;;;;;;;18.45;82.26;100848.56;5054287;28;19921;-79
2022/07/29 08:29:45;;;;;;;;;;;;;;;18.50;80.11;100846.13;5054912;28;20443;-80
2022/07/29 08:32:12;;;;;;;;;;;;;;;18.40;79.52;100845.75;5057630;28;19921;-80
2022/07/29 08:34:39;;;;;;;;;;;;;;;18.41;79.50;100842.06;5048977;28;20016;-77
2022/07/29 08:37:05;;;;;;;;;;;;;;;18.51;78.30;100831.88;5046186;28;20216;-78
2022/07/29 08:39:32;;;;;;;;;;;;;;;18.58;78.80;100836.16;5053249;28;19920;-78
2022/07/29 08:41:58;;;;;;;;;;;;;;;18.68;79.67;100846.38;5058093;28;19956;-79
2022/07/29 08:44:26;;;;;;;;;;;;;;;18.84;80.76;100850.47;5059220;28;19960;-80
2022/07/29 08:46:53;;;;;;;;;;;;;;;18.92;78.65;100852.88;5058097;28;19952;-78
2022/07/29 08:49:20;;;;;;;;;;;;;;;19.08;76.33;100851.66;5054230;28;19924;-79
2022/07/29 08:51:47;;;;;;;;;;;;;;;19.14;77.51;100856.16;5055082;28;19925;-78
2022/07/29 08:54:19;;;;;;;;;;;;;;;19.02;73.65;100852.47;5054387;28;19960;-79
2022/07/29 08:56:48;;;;;;;;;;;;;;;19.12;74.59;100852.88;5053159;28;19933;-80
2022/07/29 08:59:15;;;;;;;;;;;;;;;19.21;77.56;100859.59;5058157;28;19921;-80
2022/07/29 09:01:44;;;;;;;;;;;;;;;19.32;74.69;100853.66;5058483;28;19920;-80
2022/07/29 09:04:11;;;;;;;;;;;;;;;19.38;76.53;100863.44;5061325;28;20358;-80
2022/07/29 09:06:41;;;;;;;;;;;;;;;19.43;75.02;100858.31;5062756;28;20387;-80
2022/07/29 09:09:08;;;;;;;;;;;;;;;19.46;75.55;100857.09;5061611;28;19925;-82
2022/07/29 09:11:35;;;;;;;;;;;;;;;19.43;76.50;100854.84;5060355;28;19947;-80
2022/07/29 09:14:06;;;;;;;;;;;;;;;19.36;76.75;100849.59;5064014;28;19920;-81
2022/07/29 09:17:00;;;;;;;;;;;;;;;19.47;78.28;100859.53;5064187;28;19935;-78
2022/07/29 09:19:28;;;;;;;;;;;;;;;19.45;79.14;100861.56;5039518;28;19991;-79
2022/07/29 09:21:59;;;;;;;;;;;;;;;19.38;79.75;100855.47;5059714;28;20252;-79
2022/07/29 09:24:26;;;;;;;;;;;;;;;19.36;80.15;100854.88;5059017;28;19921;-77
2022/07/29 09:26:53;;;;;;;;;;;;;;;19.37;80.28;100851.22;5057479;28;19921;-79
2022/07/29 09:29:21;;;;;;;;;;;;;;;19.55;79.21;100848.72;5061281;28;20015;-82
2022/07/29 09:31:48;;;;;;;;;;;;;;;19.97;77.98;100859.78;5065334;28;19963;-83
2022/07/29 09:34:15;;;;;;;;;;;;;;;20.34;75.82;100857.31;5066262;28;19924;-83
2022/07/29 09:36:45;;;;;;;;;;;;;;;20.80;73.81;100852.47;5065100;28;19921;-80
2022/07/29 09:39:14;;;;;;;;;;;;;;;21.27;71.56;100850.22;5064834;28;19973;-80
2022/07/29 09:41:47;;;;;;;;;;;;;;;21.37;70.44;100837.22;5065465;28;19928;-82
2022/07/29 09:44:14;;;;;;;;;;;;;;;21.61;69.97;100848.03;5061463;28;19928;-80
2022/07/29 09:46:44;;;;;;;;;;;;;;;21.98;69.46;100846.91;5059465;28;20167;-78
2022/07/29 09:49:12;;;;;;;;;;;;;;;21.71;67.86;100848.31;5059017;28;19921;-80
2022/07/29 09:51:40;;;;;;;;;;;;;;;22.21;67.70;100845.41;5055255;28;19921;-79
2022/07/29 09:54:21;;;;;;;;;;;;;;;22.29;67.46;100847.75;5056835;28;19959;-78
2022/07/29 09:56:49;;;;;;;;;;;;;;;22.11;67.22;100851.28;5055246;28;19925;-78
2022/07/29 09:59:16;;;;;;;;;;;;;;;22.14;65.84;100849.00;5057592;28;19985;-78
2022/07/29 10:01:44;;;;;;;;;;;;;;;21.96;65.74;100853.50;5058018;28;19963;-79
2022/07/29 10:04:11;;;;;;;;;;;;;;;22.01;65.57;100854.50;5054405;28;20016;-78
2022/07/29 10:06:56;;;;;;;;;;;;;;;22.30;65.13;100852.84;5053819;28;19925;-78
2022/07/29 10:09:22;;;;;;;;;;;;;;;22.22;64.30;100852.34;5057113;28;19927;-78
2022/07/29 10:12:02;;;;;;;;;;;;;;;22.14;66.16;100854.31;5059509;28;20391;-80
2022/07/29 10:14:30;;;;;;;;;;;;;;;21.86;66.46;100854.03;5058260;28;19949;-79
2022/07/29 10:16:56;;;;;;;;;;;;;;;21.93;67.06;100851.28;5056018;28;19956;-79
2022/07/29 10:19:23;;;;;;;;;;;;;;;21.97;67.26;100855.94;5057287;28;19968;-78
2022/07/29 10:21:49;;;;;;;;;;;;;;;21.91;66.16;100854.19;5055218;28;20385;-77
2022/07/29 10:24:16;;;;;;;;;;;;;;;21.96;67.08;100851.66;5054312;28;19925;-76
2022/07/29 10:26:44;;;;;;;;;;;;;;;22.04;68.16;100854.03;5058549;28;20363;-80
2022/07/29 10:29:12;;;;;;;;;;;;;;;22.26;66.59;100861.53;5060872;28;19921;-80
2022/07/29 10:31:44;;;;;;;;;;;;;;;22.09;65.80;100856.03;5063561;28;19951;-79
2022/07/29 10:34:14;;;;;;;;;;;;;;;22.38;65.17;100863.19;5059337;28;19968;-76
2022/07/29 10:36:50;;;;;;;;;;;;;;;22.93;65.08;100862.13;5053704;28;19927;-79
2022/07/29 10:39:22;;;;;;;;;;;;;;;23.29;63.01;100861.06;5053779;28;19970;-78
2022/07/29 10:42:06;;;;;;;;;;;;;;;23.78;62.15;100854.38;5056433;28;19956;-79
2022/07/29 10:44:36;;;;;;;;;;;;;;;24.28;60.90;100859.06;5058125;28;20411;-79
2022/07/29 10:47:02;;;;;;;;;;;;;;;24.27;60.19;100852.09;5059210;28;20350;-79
2022/07/29 10:49:29;;;;;;;;;;;;;;;24.54;59.83;100847.75;5056782;28;19968;-76
2022/07/29 10:52:00;;;;;;;;;;;;;;;24.69;60.54;100856.00;5057444;28;19976;-79
2022/07/29 10:54:41;;;;;;;;;;;;;;;24.75;59.96;100856.91;5057232;28;20363;-79
2022/07/29 10:57:19;;;;;;;;;;;;;;;24.61;58.57;100848.38;5057637;28;19925;-79
2022/07/29 10:59:47;;;;;;;;;;;;;;;24.59;58.09;100842.47;5058086;28;19978;-79
2022/07/29 11:02:32;;;;;;;;;;;;;;;24.61;57.72;100859.09;5060240;28;19920;-79
2022/07/29 11:05:03;;;;;;;;;;;;;;;24.93;57.47;100848.63;5061327;28;19921;-80
2022/07/29 11:07:29;;;;;;;;;;;;;;;25.28;54.93;100837.63;5060780;28;19921;-78
2022/07/29 11:10:18;;;;;;;;;;;;;;;24.99;54.26;100858.38;5060016;28;20300;-80
2022/07/29 11:12:48;;;;;;;;;;;;;;;24.65;55.45;100844.16;5057650;28;19921;-78
2022/07/29 11:15:18;;;;;;;;;;;;;;;24.52;56.14;100839.16;5060394;28;19966;-79
2022/07/29 11:18:04;;;;;;;;;;;;;;;24.39;55.82;100842.16;5060161;28;20473;-78
2022/07/29 11:20:41;;;;;;;;;;;;;;;24.07;55.45;100848.00;5055287;28;19920;-79
2022/07/29 11:23:21;;;;;;;;;;;;;;;24.16;54.35;100835.84;5057537;28;20024;-77
2022/07/29 11:26:12;;;;;;;;;;;;;;;24.36;54.60;100840.75;5059448;28;19974;-78
2022/07/29 11:28:40;;;;;;;;;;;;;;;24.24;54.39;100836.50;5058565;28;19948;-79
2022/07/29 11:31:10;;;;;;;;;;;;;;;24.45;53.91;100836.63;5059035;28;20423;-80
2022/07/29 11:33:37;;;;;;;;;;;;;;;24.83;53.53;100842.28;5060531;28;19984;-80
2022/07/29 11:36:11;;;;;;;;;;;;;;;24.80;53.14;100836.38;5059285;28;19928;-80
2022/07/29 11:38:38;;;;;;;;;;;;;;;24.58;53.86;100835.47;5060028;28;19960;-79
2022/07/29 11:41:24;;;;;;;;;;;;;;;24.58;54.15;100843.50;5060290;28;20273;-80
2022/07/29 11:43:52;;;;;;;;;;;;;;;24.60;54.47;100836.06;5058854;28;20015;-79
2022/07/29 11:46:40;;;;;;;;;;;;;;;24.43;54.41;100835.25;5041671;28;20334;-79
2022/07/29 11:49:07;;;;;;;;;;;;;;;24.35;53.99;100831.13;5049687;28;19924;-79
2022/07/29 11:51:34;;;;;;;;;;;;;;;24.26;54.75;100839.78;5079160;28;19920;-79
2022/07/29 11:54:02;;;;;;;;;;;;;;;24.50;54.03;100843.94;5080949;28;20015;-79
2022/07/29 11:56:31;;;;;;;;;;;;;;;24.25;54.46;100840.78;5077317;28;19951;-78
2022/07/29 11:59:04;;;;;;;;;;;;;;;24.19;53.20;100839.06;5058891;28;19982;-78
2022/07/29 12:01:32;;;;;;;;;;;;;;;24.29;53.58;100841.97;5053521;28;19925;-79
2022/07/29 12:04:03;;;;;;;;;;;;;;;24.37;52.16;100841.56;5048361;28;19921;-78
2022/07/29 12:06:29;;;;;;;;;;;;;;;24.69;52.34;100844.50;5049669;28;20382;-79
2022/07/29 12:08:56;;;;;;;;;;;;;;;24.53;51.33;100846.13;5048726;28;19921;-78
2022/07/29 12:11:22;;;;;;;;;;;;;;;24.53;51.61;100840.78;5047352;28;19982;-79
2022/07/29 12:13:49;;;;;;;;;;;;;;;25.10;51.70;100835.22;5059566;28;19921;-79
2022/07/29 12:16:16;;;;;;;;;;;;;;;25.45;50.08;100845.59;5058810;28;20015;-77
2022/07/29 12:18:55;;;;;;;;;;;;;;;25.22;50.78;100837.78;5053145;28;20000;-78
2022/07/29 12:21:21;;;;;;;;;;;;;;;25.35;50.73;100838.25;5060713;28;19920;-79
2022/07/29 12:23:53;;;;;;;;;;;;;;;25.14;50.57;100841.69;5079367;28;19951;-82
2022/07/29 12:26:20;;;;;;;;;;;;;;;25.12;50.59;100841.13;5063800;28;20022;-78
2022/07/29 12:28:46;;;;;;;;;;;;;;;25.47;50.59;100835.44;5061211;28;19956;-79